Terminal Aerodrome Forecast
Issued by NWS Nashville, TN

Home | Current Version | Previous Version | Text Only | Print | Product List | Glossary On
Versions: 1 2 3 4 5 6 7 8 9 10 11 12 13 14 15 16 17 18 19 20 21 22 23
000
FTUS44 KOHX 282000 AAB
TAFBNA
TAF AMD
KBNA 282059Z 2821/2918 33008G16KT P6SM SCT060 BKN080
     FM290400 35005KT P6SM FEW080
     FM291500 36007G15KT P6SM FEW040=

USA.gov is the U.S. government's official web portal to all federal, state and local government web resources and services.